sensor_id;sensor_type;location;lat;lon;timestamp;pressure;altitude;pressure_sealevel;temperature;humidity
14790;BME280;7486;51.010;10.366;2023-04-08T00:02:18;98703.34;;;3.06;62.31
14790;BME280;7486;51.010;10.366;2023-04-08T00:05:04;98700.06;;;3.04;62.39
14790;BME280;7486;51.010;10.366;2023-04-08T00:07:50;98703.53;;;2.95;63.05
14790;BME280;7486;51.010;10.366;2023-04-08T00:10:35;98695.13;;;3.01;63.69
14790;BME280;7486;51.010;10.366;2023-04-08T00:13:20;98702.75;;;2.94;64.83
14790;BME280;7486;51.010;10.366;2023-04-08T00:16:05;98701.81;;;2.86;64.69
14790;BME280;7486;51.010;10.366;2023-04-08T00:18:51;98657.63;;;2.55;65.23
14790;BME280;7486;51.010;10.366;2023-04-08T00:21:36;98695.50;;;2.79;65.43
14790;BME280;7486;51.010;10.366;2023-04-08T00:24:22;98697.75;;;2.64;66.81
14790;BME280;7486;51.010;10.366;2023-04-08T00:27:09;98691.44;;;2.67;66.97
14790;BME280;7486;51.010;10.366;2023-04-08T00:29:55;98696.09;;;2.73;67.33
14790;BME280;7486;51.010;10.366;2023-04-08T00:32:41;98699.59;;;2.63;67.54
14790;BME280;7486;51.010;10.366;2023-04-08T00:35:26;98696.56;;;2.86;67.35
14790;BME280;7486;51.010;10.366;2023-04-08T00:38:12;98696.47;;;3.05;66.92
14790;BME280;7486;51.010;10.366;2023-04-08T00:40:58;98698.88;;;3.16;66.89
14790;BME280;7486;51.010;10.366;2023-04-08T00:43:43;98710.91;;;3.09;67.54
14790;BME280;7486;51.010;10.366;2023-04-08T00:46:30;98673.91;;;2.77;67.99
14790;BME280;7486;51.010;10.366;2023-04-08T00:49:19;98703.75;;;2.84;68.78
14790;BME280;7486;51.010;10.366;2023-04-08T00:52:05;98699.16;;;2.58;69.56
14790;BME280;7486;51.010;10.366;2023-04-08T00:54:51;98706.53;;;2.45;70.73
14790;BME280;7486;51.010;10.366;2023-04-08T00:57:36;98699.97;;;2.69;70.37
14790;BME280;7486;51.010;10.366;2023-04-08T01:00:23;98704.94;;;2.89;69.84
14790;BME280;7486;51.010;10.366;2023-04-08T01:03:26;98698.22;;;2.87;69.50
14790;BME280;7486;51.010;10.366;2023-04-08T01:09:22;98653.41;;;2.72;69.14
14790;BME280;7486;51.010;10.366;2023-04-08T01:12:11;98686.09;;;3.13;68.36
14790;BME280;7486;51.010;10.366;2023-04-08T01:15:05;98705.59;;;3.28;67.55
14790;BME280;7486;51.010;10.366;2023-04-08T01:17:53;98702.06;;;3.37;67.46
14790;BME280;7486;51.010;10.366;2023-04-08T01:20:39;98673.00;;;3.13;68.17
14790;BME280;7486;51.010;10.366;2023-04-08T01:23:38;98688.50;;;3.24;68.49
14790;BME280;7486;51.010;10.366;2023-04-08T01:26:25;98698.88;;;3.16;68.99
14790;BME280;7486;51.010;10.366;2023-04-08T01:29:11;98694.03;;;3.21;67.90
14790;BME280;7486;51.010;10.366;2023-04-08T01:31:59;98691.75;;;3.36;68.20
14790;BME280;7486;51.010;10.366;2023-04-08T01:34:45;98688.91;;;3.47;67.94
14790;BME280;7486;51.010;10.366;2023-04-08T01:37:32;98686.16;;;3.48;67.59
14790;BME280;7486;51.010;10.366;2023-04-08T01:40:18;98691.66;;;3.63;66.78
14790;BME280;7486;51.010;10.366;2023-04-08T01:43:06;98686.16;;;3.66;67.24
14790;BME280;7486;51.010;10.366;2023-04-08T01:45:53;98694.38;;;3.71;67.22
14790;BME280;7486;51.010;10.366;2023-04-08T01:48:39;98694.59;;;3.78;66.86
14790;BME280;7486;51.010;10.366;2023-04-08T01:51:25;98691.84;;;3.79;66.24
14790;BME280;7486;51.010;10.366;2023-04-08T01:54:11;98688.06;;;3.82;67.18
14790;BME280;7486;51.010;10.366;2023-04-08T01:56:57;98693.44;;;3.80;66.14
14790;BME280;7486;51.010;10.366;2023-04-08T01:59:47;98690.03;;;3.80;66.51
14790;BME280;7486;51.010;10.366;2023-04-08T02:02:35;98686.69;;;3.70;67.08
14790;BME280;7486;51.010;10.366;2023-04-08T02:05:22;98692.19;;;3.66;67.42
14790;BME280;7486;51.010;10.366;2023-04-08T02:08:07;98691.91;;;3.70;68.04
14790;BME280;7486;51.010;10.366;2023-04-08T02:10:56;98694.97;;;3.65;68.76
14790;BME280;7486;51.010;10.366;2023-04-08T02:13:42;98698.78;;;3.71;68.81
14790;BME280;7486;51.010;10.366;2023-04-08T02:16:38;98703.72;;;3.74;68.35
14790;BME280;7486;51.010;10.366;2023-04-08T02:19:29;98694.88;;;3.75;68.40
14790;BME280;7486;51.010;10.366;2023-04-08T02:22:22;98694.75;;;3.76;67.97
14790;BME280;7486;51.010;10.366;2023-04-08T02:25:15;98695.41;;;3.78;68.34
14790;BME280;7486;51.010;10.366;2023-04-08T02:28:03;98693.19;;;3.83;68.03
14790;BME280;7486;51.010;10.366;2023-04-08T02:30:51;98695.31;;;3.88;68.86
14790;BME280;7486;51.010;10.366;2023-04-08T02:33:37;98655.81;;;3.63;67.99
14790;BME280;7486;51.010;10.366;2023-04-08T02:36:24;98696.97;;;3.89;68.60
14790;BME280;7486;51.010;10.366;2023-04-08T02:39:09;98688.66;;;3.93;69.02
14790;BME280;7486;51.010;10.366;2023-04-08T02:41:55;98694.25;;;3.98;68.58
14790;BME280;7486;51.010;10.366;2023-04-08T02:44:40;98694.94;;;4.00;68.56
14790;BME280;7486;51.010;10.366;2023-04-08T02:47:26;98702.00;;;4.00;67.85
14790;BME280;7486;51.010;10.366;2023-04-08T02:50:11;98697.84;;;3.97;68.86
14790;BME280;7486;51.010;10.366;2023-04-08T02:52:56;98678.25;;;3.84;68.40
14790;BME280;7486;51.010;10.366;2023-04-08T02:55:42;98699.59;;;3.89;69.51
14790;BME280;7486;51.010;10.366;2023-04-08T02:58:27;98702.75;;;3.75;70.04
14790;BME280;7486;51.010;10.366;2023-04-08T03:01:13;98702.53;;;3.86;69.97
14790;BME280;7486;51.010;10.366;2023-04-08T03:03:58;98705.06;;;3.95;69.58
14790;BME280;7486;51.010;10.366;2023-04-08T03:06:43;98703.41;;;3.94;69.08
14790;BME280;7486;51.010;10.366;2023-04-08T03:09:28;98706.13;;;3.85;69.55
14790;BME280;7486;51.010;10.366;2023-04-08T03:12:13;98702.53;;;3.86;70.02
14790;BME280;7486;51.010;10.366;2023-04-08T03:14:58;98697.94;;;3.88;69.61
14790;BME280;7486;51.010;10.366;2023-04-08T03:17:44;98710.50;;;4.02;68.94
14790;BME280;7486;51.010;10.366;2023-04-08T03:20:29;98713.00;;;4.03;69.18
14790;BME280;7486;51.010;10.366;2023-04-08T03:23:14;98706.09;;;4.02;68.21
14790;BME280;7486;51.010;10.366;2023-04-08T03:26:00;98708.84;;;4.01;68.85
14790;BME280;7486;51.010;10.366;2023-04-08T03:28:45;98727.00;;;3.94;69.15
14790;BME280;7486;51.010;10.366;2023-04-08T03:31:31;98674.53;;;3.69;69.16
14790;BME280;7486;51.010;10.366;2023-04-08T03:34:17;98638.50;;;3.45;68.95
14790;BME280;7486;51.010;10.366;2023-04-08T03:37:02;98714.34;;;3.90;69.40
14790;BME280;7486;51.010;10.366;2023-04-08T03:39:48;98718.81;;;3.97;68.58
14790;BME280;7486;51.010;10.366;2023-04-08T03:42:33;98719.44;;;3.91;67.40
14790;BME280;7486;51.010;10.366;2023-04-08T03:45:18;98721.53;;;3.88;68.63
14790;BME280;7486;51.010;10.366;2023-04-08T03:48:04;98710.84;;;3.63;70.96
14790;BME280;7486;51.010;10.366;2023-04-08T03:50:49;98726.94;;;3.86;70.40
14790;BME280;7486;51.010;10.366;2023-04-08T03:53:34;98683.53;;;3.66;69.42
14790;BME280;7486;51.010;10.366;2023-04-08T03:56:20;98729.91;;;3.91;69.01
14790;BME280;7486;51.010;10.366;2023-04-08T03:59:05;98724.53;;;3.93;68.40
14790;BME280;7486;51.010;10.366;2023-04-08T04:01:50;98732.00;;;3.88;67.98
14790;BME280;7486;51.010;10.366;2023-04-08T04:04:35;98732.56;;;3.56;67.46
14790;BME280;7486;51.010;10.366;2023-04-08T04:07:21;98735.97;;;3.56;66.73
14790;BME280;7486;51.010;10.366;2023-04-08T04:10:07;98747.88;;;3.51;67.31
14790;BME280;7486;51.010;10.366;2023-04-08T04:12:52;98746.09;;;3.51;67.10
14790;BME280;7486;51.010;10.366;2023-04-08T04:15:38;98744.53;;;3.58;67.51
14790;BME280;7486;51.010;10.366;2023-04-08T04:18:23;98744.81;;;3.55;67.67
14790;BME280;7486;51.010;10.366;2023-04-08T04:21:09;98748.41;;;3.54;67.89
14790;BME280;7486;51.010;10.366;2023-04-08T04:23:54;98745.88;;;3.62;68.76
14790;BME280;7486;51.010;10.366;2023-04-08T04:26:40;98745.94;;;3.71;68.32
14790;BME280;7486;51.010;10.366;2023-04-08T04:29:26;98748.13;;;3.75;68.14
14790;BME280;7486;51.010;10.366;2023-04-08T04:32:11;98753.06;;;3.78;67.34
14790;BME280;7486;51.010;10.366;2023-04-08T04:34:56;98750.28;;;3.62;69.01
14790;BME280;7486;51.010;10.366;2023-04-08T04:37:42;98660.50;;;3.07;69.06
14790;BME280;7486;51.010;10.366;2023-04-08T04:40:27;98756.06;;;3.65;68.98
14790;BME280;7486;51.010;10.366;2023-04-08T04:43:13;98757.47;;;3.78;68.41
14790;BME280;7486;51.010;10.366;2023-04-08T04:45:58;98760.19;;;3.86;67.20
14790;BME280;7486;51.010;10.366;2023-04-08T04:48:43;98759.72;;;3.90;66.50
14790;BME280;7486;51.010;10.366;2023-04-08T04:51:30;98758.75;;;3.91;65.75
14790;BME280;7486;51.010;10.366;2023-04-08T04:54:15;98762.72;;;3.95;65.75
14790;BME280;7486;51.010;10.366;2023-04-08T04:57:01;98757.59;;;3.94;66.51
14790;BME280;7486;51.010;10.366;2023-04-08T04:59:46;98761.06;;;3.94;65.95
14790;BME280;7486;51.010;10.366;2023-04-08T05:02:31;98758.31;;;3.96;66.39
14790;BME280;7486;51.010;10.366;2023-04-08T05:05:17;98763.91;;;4.01;65.98
14790;BME280;7486;51.010;10.366;2023-04-08T05:08:03;98763.16;;;3.91;66.64
14790;BME280;7486;51.010;10.366;2023-04-08T05:10:48;98746.03;;;3.79;68.16
14790;BME280;7486;51.010;10.366;2023-04-08T05:13:34;98767.34;;;3.84;68.00
14790;BME280;7486;51.010;10.366;2023-04-08T05:16:19;98772.97;;;3.71;70.05
14790;BME280;7486;51.010;10.366;2023-04-08T05:19:04;98751.09;;;3.45;70.53
14790;BME280;7486;51.010;10.366;2023-04-08T05:21:49;98773.94;;;3.70;70.66
14790;BME280;7486;51.010;10.366;2023-04-08T05:24:35;98778.00;;;3.82;68.36
14790;BME280;7486;51.010;10.366;2023-04-08T05:27:21;98780.84;;;3.89;67.67
14790;BME280;7486;51.010;10.366;2023-04-08T05:30:07;98770.78;;;3.84;67.32
14790;BME280;7486;51.010;10.366;2023-04-08T05:32:53;98770.44;;;3.79;67.06
14790;BME280;7486;51.010;10.366;2023-04-08T05:35:38;98784.94;;;3.91;67.25
14790;BME280;7486;51.010;10.366;2023-04-08T05:38:24;98786.16;;;3.79;68.24
14790;BME280;7486;51.010;10.366;2023-04-08T05:41:09;98736.06;;;3.64;68.25
14790;BME280;7486;51.010;10.366;2023-04-08T05:43:54;98787.78;;;3.98;67.27
14790;BME280;7486;51.010;10.366;2023-04-08T05:46:40;98786.81;;;3.99;67.44
14790;BME280;7486;51.010;10.366;2023-04-08T05:49:25;98788.09;;;3.77;67.51
14790;BME280;7486;51.010;10.366;2023-04-08T05:52:11;98782.47;;;3.72;68.24
14790;BME280;7486;51.010;10.366;2023-04-08T05:54:56;98791.22;;;3.63;68.66
14790;BME280;7486;51.010;10.366;2023-04-08T05:57:41;98800.41;;;3.49;69.24
14790;BME280;7486;51.010;10.366;2023-04-08T06:00:27;98788.66;;;3.53;69.26
14790;BME280;7486;51.010;10.366;2023-04-08T06:03:12;98794.59;;;3.55;68.76
14790;BME280;7486;51.010;10.366;2023-04-08T06:05:57;98784.13;;;3.55;68.17
14790;BME280;7486;51.010;10.366;2023-04-08T06:08:43;98795.84;;;3.51;68.39
14790;BME280;7486;51.010;10.366;2023-04-08T06:11:28;98802.41;;;3.01;70.76
14790;BME280;7486;51.010;10.366;2023-04-08T06:14:14;98810.56;;;2.98;71.70
14790;BME280;7486;51.010;10.366;2023-04-08T06:16:59;98797.81;;;3.12;69.44
14790;BME280;7486;51.010;10.366;2023-04-08T06:19:44;98803.69;;;3.24;68.19
14790;BME280;7486;51.010;10.366;2023-04-08T06:22:29;98816.88;;;3.32;67.57
14790;BME280;7486;51.010;10.366;2023-04-08T06:25:14;98817.28;;;3.37;67.68
14790;BME280;7486;51.010;10.366;2023-04-08T06:28:00;98752.69;;;2.74;68.97
14790;BME280;7486;51.010;10.366;2023-04-08T06:30:45;98820.56;;;3.39;67.76
14790;BME280;7486;51.010;10.366;2023-04-08T06:33:30;98827.13;;;3.53;66.86
14790;BME280;7486;51.010;10.366;2023-04-08T06:36:16;98833.41;;;3.60;67.26
14790;BME280;7486;51.010;10.366;2023-04-08T06:39:01;98803.16;;;3.21;67.78
14790;BME280;7486;51.010;10.366;2023-04-08T06:41:46;98830.97;;;3.31;68.56
14790;BME280;7486;51.010;10.366;2023-04-08T06:44:44;98840.44;;;3.42;67.56
14790;BME280;7486;51.010;10.366;2023-04-08T06:47:29;98839.78;;;3.57;67.04
14790;BME280;7486;51.010;10.366;2023-04-08T06:50:14;98839.59;;;3.41;67.56
14790;BME280;7486;51.010;10.366;2023-04-08T06:53:00;98782.63;;;3.16;68.40
14790;BME280;7486;51.010;10.366;2023-04-08T06:55:45;98839.53;;;3.51;67.59
14790;BME280;7486;51.010;10.366;2023-04-08T06:58:30;98849.09;;;2.96;69.69
14790;BME280;7486;51.010;10.366;2023-04-08T07:01:15;98839.72;;;3.03;68.73
14790;BME280;7486;51.010;10.366;2023-04-08T07:04:01;98859.50;;;3.25;67.90
14790;BME280;7486;51.010;10.366;2023-04-08T07:06:46;98854.09;;;3.26;67.36
14790;BME280;7486;51.010;10.366;2023-04-08T07:09:31;98866.09;;;3.19;67.51
14790;BME280;7486;51.010;10.366;2023-04-08T07:12:17;98865.47;;;3.07;68.81
14790;BME280;7486;51.010;10.366;2023-04-08T07:15:02;98868.88;;;3.18;69.60
14790;BME280;7486;51.010;10.366;2023-04-08T07:17:48;98871.41;;;3.00;69.98
14790;BME280;7486;51.010;10.366;2023-04-08T07:20:33;98872.69;;;2.86;69.62
14790;BME280;7486;51.010;10.366;2023-04-08T07:23:19;98881.75;;;2.92;69.87
14790;BME280;7486;51.010;10.366;2023-04-08T07:26:05;98876.53;;;2.92;68.95
14790;BME280;7486;51.010;10.366;2023-04-08T07:28:50;98887.66;;;3.03;68.69
14790;BME280;7486;51.010;10.366;2023-04-08T07:31:36;98888.22;;;2.97;70.07
14790;BME280;7486;51.010;10.366;2023-04-08T07:34:21;98895.53;;;2.94;71.10
14790;BME280;7486;51.010;10.366;2023-04-08T07:37:06;98889.06;;;2.88;71.93
14790;BME280;7486;51.010;10.366;2023-04-08T07:39:52;98885.50;;;2.80;74.33
14790;BME280;7486;51.010;10.366;2023-04-08T07:42:37;98898.88;;;2.77;75.27
14790;BME280;7486;51.010;10.366;2023-04-08T07:45:24;98901.91;;;2.72;75.56
14790;BME280;7486;51.010;10.366;2023-04-08T07:48:10;98901.59;;;2.85;75.81
14790;BME280;7486;51.010;10.366;2023-04-08T07:50:56;98908.56;;;3.13;75.34
14790;BME280;7486;51.010;10.366;2023-04-08T07:53:53;98909.94;;;3.17;75.01
14790;BME280;7486;51.010;10.366;2023-04-08T07:56:39;98899.75;;;3.14;74.57
14790;BME280;7486;51.010;10.366;2023-04-08T07:59:24;98916.94;;;3.26;74.41
14790;BME280;7486;51.010;10.366;2023-04-08T08:02:10;98919.84;;;3.23;74.25
14790;BME280;7486;51.010;10.366;2023-04-08T08:04:55;98911.75;;;3.07;76.14
14790;BME280;7486;51.010;10.366;2023-04-08T08:07:41;98916.22;;;2.58;77.14
14790;BME280;7486;51.010;10.366;2023-04-08T08:10:26;98925.31;;;2.64;77.24
14790;BME280;7486;51.010;10.366;2023-04-08T08:13:11;98923.78;;;2.61;78.08
14790;BME280;7486;51.010;10.366;2023-04-08T08:15:57;98926.25;;;2.92;77.11
14790;BME280;7486;51.010;10.366;2023-04-08T08:18:42;98929.69;;;2.83;77.43
14790;BME280;7486;51.010;10.366;2023-04-08T08:21:28;98924.91;;;2.59;79.80
14790;BME280;7486;51.010;10.366;2023-04-08T08:24:13;98919.09;;;2.84;79.39
14790;BME280;7486;51.010;10.366;2023-04-08T08:26:59;98920.09;;;2.74;80.41
14790;BME280;7486;51.010;10.366;2023-04-08T08:29:44;98914.84;;;2.74;80.25
14790;BME280;7486;51.010;10.366;2023-04-08T08:32:29;98912.78;;;2.77;78.56
14790;BME280;7486;51.010;10.366;2023-04-08T08:35:15;98930.22;;;2.96;78.82
14790;BME280;7486;51.010;10.366;2023-04-08T08:38:00;98936.97;;;3.08;78.85
14790;BME280;7486;51.010;10.366;2023-04-08T08:40:46;98916.81;;;3.28;78.15
14790;BME280;7486;51.010;10.366;2023-04-08T08:43:31;98941.59;;;3.24;77.40
14790;BME280;7486;51.010;10.366;2023-04-08T08:46:17;98888.84;;;2.62;79.18
14790;BME280;7486;51.010;10.366;2023-04-08T08:49:02;98956.00;;;2.81;79.97
14790;BME280;7486;51.010;10.366;2023-04-08T08:51:48;98948.16;;;2.91;80.27
14790;BME280;7486;51.010;10.366;2023-04-08T08:54:34;98962.63;;;2.76;80.22
14790;BME280;7486;51.010;10.366;2023-04-08T08:57:20;98956.84;;;2.62;81.24
14790;BME280;7486;51.010;10.366;2023-04-08T09:00:06;98957.13;;;2.59;81.83
14790;BME280;7486;51.010;10.366;2023-04-08T09:02:51;98956.81;;;3.01;80.54
14790;BME280;7486;51.010;10.366;2023-04-08T09:05:48;98965.78;;;2.89;80.71
14790;BME280;7486;51.010;10.366;2023-04-08T09:08:37;98967.56;;;2.88;80.55
14790;BME280;7486;51.010;10.366;2023-04-08T09:11:23;98964.38;;;3.04;80.14
14790;BME280;7486;51.010;10.366;2023-04-08T09:14:18;98952.53;;;3.00;79.22
14790;BME280;7486;51.010;10.366;2023-04-08T09:17:04;98940.19;;;2.73;79.74
14790;BME280;7486;51.010;10.366;2023-04-08T09:20:24;98988.75;;;2.95;80.47
14790;BME280;7486;51.010;10.366;2023-04-08T09:23:10;98988.50;;;2.98;80.94
14790;BME280;7486;51.010;10.366;2023-04-08T09:26:05;98990.28;;;2.88;81.37
14790;BME280;7486;51.010;10.366;2023-04-08T09:29:04;98998.13;;;2.78;81.80
14790;BME280;7486;51.010;10.366;2023-04-08T09:32:03;98995.50;;;2.88;81.52
14790;BME280;7486;51.010;10.366;2023-04-08T09:34:48;98993.84;;;3.06;81.43
14790;BME280;7486;51.010;10.366;2023-04-08T09:37:34;98993.03;;;3.05;81.90
14790;BME280;7486;51.010;10.366;2023-04-08T09:40:19;98993.13;;;3.23;81.10
14790;BME280;7486;51.010;10.366;2023-04-08T09:43:08;98995.09;;;3.31;79.93
14790;BME280;7486;51.010;10.366;2023-04-08T09:45:59;98993.44;;;3.20;79.90
14790;BME280;7486;51.010;10.366;2023-04-08T09:48:55;99001.81;;;3.24;80.22
14790;BME280;7486;51.010;10.366;2023-04-08T09:55:05;98994.97;;;3.03;80.91
14790;BME280;7486;51.010;10.366;2023-04-08T09:58:03;99000.47;;;2.81;81.70
14790;BME280;7486;51.010;10.366;2023-04-08T10:00:52;98987.41;;;2.91;81.86
14790;BME280;7486;51.010;10.366;2023-04-08T10:03:51;98996.34;;;2.98;81.96
14790;BME280;7486;51.010;10.366;2023-04-08T10:06:39;98939.19;;;2.74;81.03
14790;BME280;7486;51.010;10.366;2023-04-08T10:09:26;98979.56;;;2.91;82.02
14790;BME280;7486;51.010;10.366;2023-04-08T10:12:12;99001.28;;;3.30;81.75
14790;BME280;7486;51.010;10.366;2023-04-08T10:15:23;99004.88;;;3.38;81.82
14790;BME280;7486;51.010;10.366;2023-04-08T10:20:54;98999.66;;;3.29;82.57
14790;BME280;7486;51.010;10.366;2023-04-08T10:23:58;98994.50;;;3.27;82.76
14790;BME280;7486;51.010;10.366;2023-04-08T10:26:44;98998.81;;;3.38;82.43
14790;BME280;7486;51.010;10.366;2023-04-08T10:29:30;98997.69;;;3.40;81.76
14790;BME280;7486;51.010;10.366;2023-04-08T10:32:27;99002.25;;;3.38;81.45
14790;BME280;7486;51.010;10.366;2023-04-08T10:35:13;99003.03;;;3.58;81.86
14790;BME280;7486;51.010;10.366;2023-04-08T10:37:59;98983.50;;;3.33;80.72
14790;BME280;7486;51.010;10.366;2023-04-08T10:40:46;99006.84;;;3.63;81.18
14790;BME280;7486;51.010;10.366;2023-04-08T10:43:33;99013.47;;;3.68;80.24
14790;BME280;7486;51.010;10.366;2023-04-08T10:46:19;99015.13;;;3.69;80.27
14790;BME280;7486;51.010;10.366;2023-04-08T10:49:04;99014.00;;;3.71;80.18
14790;BME280;7486;51.010;10.366;2023-04-08T10:51:50;98995.03;;;3.50;80.13
14790;BME280;7486;51.010;10.366;2023-04-08T10:54:36;99008.50;;;3.64;79.69
14790;BME280;7486;51.010;10.366;2023-04-08T10:57:25;98927.56;;;3.25;79.73
14790;BME280;7486;51.010;10.366;2023-04-08T11:00:16;99012.72;;;3.85;79.66
14790;BME280;7486;51.010;10.366;2023-04-08T11:03:05;99006.50;;;3.86;79.45
14790;BME280;7486;51.010;10.366;2023-04-08T11:05:51;99004.84;;;3.85;79.75
14790;BME280;7486;51.010;10.366;2023-04-08T11:08:37;99007.00;;;3.99;79.51
14790;BME280;7486;51.010;10.366;2023-04-08T11:11:23;99005.69;;;3.85;80.36
14790;BME280;7486;51.010;10.366;2023-04-08T11:14:08;99003.97;;;3.94;80.03
14790;BME280;7486;51.010;10.366;2023-04-08T11:16:54;99003.59;;;4.16;79.80
14790;BME280;7486;51.010;10.366;2023-04-08T11:19:39;98997.81;;;4.12;78.99
14790;BME280;7486;51.010;10.366;2023-04-08T11:22:25;99001.41;;;4.11;79.50
14790;BME280;7486;51.010;10.366;2023-04-08T11:25:11;98991.00;;;4.47;78.96
14790;BME280;7486;51.010;10.366;2023-04-08T11:27:59;98997.16;;;4.28;79.04
14790;BME280;7486;51.010;10.366;2023-04-08T11:30:45;98939.63;;;4.09;77.46
14790;BME280;7486;51.010;10.366;2023-04-08T11:33:32;98965.78;;;4.18;76.91
14790;BME280;7486;51.010;10.366;2023-04-08T11:36:17;98994.66;;;4.36;77.65
14790;BME280;7486;51.010;10.366;2023-04-08T11:39:08;99002.22;;;4.39;79.85
14790;BME280;7486;51.010;10.366;2023-04-08T11:41:54;98994.81;;;4.35;78.48
14790;BME280;7486;51.010;10.366;2023-04-08T11:44:39;99000.91;;;4.26;80.35
14790;BME280;7486;51.010;10.366;2023-04-08T11:47:31;98988.16;;;4.58;77.70
14790;BME280;7486;51.010;10.366;2023-04-08T11:50:24;98887.31;;;3.90;77.69
14790;BME280;7486;51.010;10.366;2023-04-08T11:53:21;98991.75;;;4.75;76.95
14790;BME280;7486;51.010;10.366;2023-04-08T11:56:20;98993.03;;;4.71;76.86
14790;BME280;7486;51.010;10.366;2023-04-08T11:59:05;98998.41;;;4.87;77.64
14790;BME280;7486;51.010;10.366;2023-04-08T12:01:51;98995.88;;;4.95;77.45
14790;BME280;7486;51.010;10.366;2023-04-08T12:04:37;98995.50;;;4.90;79.04
14790;BME280;7486;51.010;10.366;2023-04-08T12:07:22;99003.16;;;4.83;77.92
14790;BME280;7486;51.010;10.366;2023-04-08T12:10:09;99008.13;;;4.68;79.58
14790;BME280;7486;51.010;10.366;2023-04-08T12:12:54;99007.47;;;4.39;78.96
14790;BME280;7486;51.010;10.366;2023-04-08T12:15:40;99028.28;;;4.23;80.55
14790;BME280;7486;51.010;10.366;2023-04-08T12:18:25;99022.19;;;3.95;81.33
14790;BME280;7486;51.010;10.366;2023-04-08T12:21:10;99024.16;;;3.84;82.87
14790;BME280;7486;51.010;10.366;2023-04-08T12:23:55;98954.25;;;3.47;80.93
14790;BME280;7486;51.010;10.366;2023-04-08T12:26:41;99024.94;;;3.94;82.16
14790;BME280;7486;51.010;10.366;2023-04-08T12:29:27;99018.19;;;3.91;82.71
14790;BME280;7486;51.010;10.366;2023-04-08T12:32:12;99025.22;;;3.91;82.26
14790;BME280;7486;51.010;10.366;2023-04-08T12:34:58;99022.91;;;3.88;82.27
14790;BME280;7486;51.010;10.366;2023-04-08T12:37:43;98969.88;;;3.66;82.80
14790;BME280;7486;51.010;10.366;2023-04-08T12:40:30;99033.88;;;4.01;82.58
14790;BME280;7486;51.010;10.366;2023-04-08T12:43:16;99031.66;;;4.06;82.60
14790;BME280;7486;51.010;10.366;2023-04-08T12:46:02;99029.41;;;4.21;80.95
14790;BME280;7486;51.010;10.366;2023-04-08T12:48:47;99029.09;;;3.96;82.25
14790;BME280;7486;51.010;10.366;2023-04-08T12:51:43;99037.25;;;4.21;80.82
14790;BME280;7486;51.010;10.366;2023-04-08T12:54:29;99020.09;;;4.26;81.25
14790;BME280;7486;51.010;10.366;2023-04-08T12:57:14;99034.00;;;4.36;80.48
14790;BME280;7486;51.010;10.366;2023-04-08T12:59:59;99031.38;;;4.36;80.59
14790;BME280;7486;51.010;10.366;2023-04-08T13:02:45;99029.22;;;4.22;81.17
14790;BME280;7486;51.010;10.366;2023-04-08T13:05:31;99025.22;;;4.00;83.39
14790;BME280;7486;51.010;10.366;2023-04-08T13:08:27;99031.88;;;3.85;84.44
14790;BME280;7486;51.010;10.366;2023-04-08T13:11:12;99040.41;;;3.87;84.32
14790;BME280;7486;51.010;10.366;2023-04-08T13:13:58;99048.53;;;3.94;84.20
14790;BME280;7486;51.010;10.366;2023-04-08T13:16:43;99027.94;;;3.72;85.32
14790;BME280;7486;51.010;10.366;2023-04-08T13:19:29;99048.03;;;3.81;86.04
14790;BME280;7486;51.010;10.366;2023-04-08T13:22:14;98949.91;;;3.09;86.18
14790;BME280;7486;51.010;10.366;2023-04-08T13:24:59;99040.75;;;3.75;86.99
14790;BME280;7486;51.010;10.366;2023-04-08T13:27:44;99041.00;;;3.81;87.08
14790;BME280;7486;51.010;10.366;2023-04-08T13:30:30;99042.75;;;4.00;86.46
14790;BME280;7486;51.010;10.366;2023-04-08T13:33:17;99038.66;;;4.15;85.27
14790;BME280;7486;51.010;10.366;2023-04-08T13:36:03;99033.41;;;4.15;85.34
14790;BME280;7486;51.010;10.366;2023-04-08T13:38:48;99034.34;;;4.51;83.70
14790;BME280;7486;51.010;10.366;2023-04-08T13:41:34;99033.19;;;4.53;83.63
14790;BME280;7486;51.010;10.366;2023-04-08T13:44:19;99005.91;;;4.46;82.00
14790;BME280;7486;51.010;10.366;2023-04-08T13:47:04;99035.22;;;4.59;80.61
14790;BME280;7486;51.010;10.366;2023-04-08T13:49:53;99031.22;;;4.65;80.41
14790;BME280;7486;51.010;10.366;2023-04-08T13:52:39;98952.59;;;4.28;78.95
14790;BME280;7486;51.010;10.366;2023-04-08T13:55:24;99026.72;;;4.93;79.31
14790;BME280;7486;51.010;10.366;2023-04-08T13:58:09;99026.66;;;5.20;77.69
14790;BME280;7486;51.010;10.366;2023-04-08T14:01:07;99022.72;;;5.24;75.99
14790;BME280;7486;51.010;10.366;2023-04-08T14:03:52;99021.72;;;5.17;73.87
14790;BME280;7486;51.010;10.366;2023-04-08T14:06:38;99023.91;;;5.12;73.71
14790;BME280;7486;51.010;10.366;2023-04-08T14:09:23;99032.94;;;5.09;73.94
14790;BME280;7486;51.010;10.366;2023-04-08T14:12:09;99024.44;;;4.98;74.50
14790;BME280;7486;51.010;10.366;2023-04-08T14:14:54;99029.25;;;5.02;74.59
14790;BME280;7486;51.010;10.366;2023-04-08T14:17:40;99022.69;;;5.16;74.33
14790;BME280;7486;51.010;10.366;2023-04-08T14:20:26;99026.47;;;5.04;73.56
14790;BME280;7486;51.010;10.366;2023-04-08T14:23:12;99019.22;;;5.15;74.45
14790;BME280;7486;51.010;10.366;2023-04-08T14:25:57;99023.66;;;5.15;72.22
14790;BME280;7486;51.010;10.366;2023-04-08T14:28:42;98988.09;;;5.03;73.12
14790;BME280;7486;51.010;10.366;2023-04-08T14:31:27;99016.88;;;5.30;71.95
14790;BME280;7486;51.010;10.366;2023-04-08T14:34:13;99031.31;;;5.52;72.12
14790;BME280;7486;51.010;10.366;2023-04-08T14:36:58;99017.53;;;5.32;73.31
14790;BME280;7486;51.010;10.366;2023-04-08T14:39:43;98978.44;;;5.29;71.52
14790;BME280;7486;51.010;10.366;2023-04-08T14:42:29;99024.72;;;5.48;69.00
14790;BME280;7486;51.010;10.366;2023-04-08T14:45:15;98933.09;;;4.84;68.14
14790;BME280;7486;51.010;10.366;2023-04-08T14:48:00;98996.00;;;5.29;70.37
14790;BME280;7486;51.010;10.366;2023-04-08T14:50:45;99029.38;;;5.54;71.61
14790;BME280;7486;51.010;10.366;2023-04-08T14:53:32;99024.88;;;5.46;71.07
14790;BME280;7486;51.010;10.366;2023-04-08T14:56:18;99028.53;;;5.53;71.30
14790;BME280;7486;51.010;10.366;2023-04-08T14:59:03;98964.91;;;5.16;70.06
14790;BME280;7486;51.010;10.366;2023-04-08T15:01:48;99050.38;;;5.80;69.77
14790;BME280;7486;51.010;10.366;2023-04-08T15:04:34;99019.66;;;5.80;68.74